Oval Lp No.11 — JL6306 — position and weather

sailwx.info

Track history (hours):
 
Tides and Currents Weather Stations Pressure Air Temp Water Temp Dewpoint Dewpoint Depression Visibility Wind Speed Wind Dir Waves Ship Positions

Oval Lp No.11

Last reported at 2014-Oct-24 14:04 UTC. Time now 2014-Oct-24 20:33 UTC.
Position N 34°01' E 134°59'.

Length 67 m; draft 3.6 m.

Type: Ship (hazmat cat A). MMSI: 431500366.

Date/timePositionNaut miles runAvg speedWind from/ knotsBaromVisibWave heightAir tempDewpointWater temp
2014-Oct-24 14:04N 34°01' E 134°59'712.1
2014-Oct-24 13:31N 34°08' E 134°59'1211.6
2014-Oct-24 12:31N 34°20' E 134°59'1111.5
2014-Oct-24 11:33N 34°28' E 135°08'1212.3
2014-Oct-24 10:33N 34°35' E 135°20'5 4.3
2014-Oct-24 09:29N 34°34' E 135°26'0 0.0
2014-Oct-24 08:29N 34°34' E 135°26'0 0.0
2014-Oct-24 07:29N 34°34' E 135°26'0 0.3
2014-Oct-24 06:33N 34°35' E 135°25'2 2.0
2014-Oct-24 05:22N 34°36' E 135°23'0 0.0
2014-Oct-24 03:28N 34°36' E 135°23'3 0.9
2014-Oct-24 00:19N 34°34' E 135°25'0 0.0
2014-Oct-23 23:23N 34°34' E 135°25'2 0.3
2014-Oct-23 16:33N 34°34' E 135°23'0 0.0
2014-Oct-23 10:33N 34°34' E 135°23'2 1.9
2014-Oct-23 09:29N 34°34' E 135°26'0 0.0
2014-Oct-23 08:23N 34°34' E 135°26'0 0.0
2014-Oct-23 07:33N 34°34' E 135°26'7 6.8
2014-Oct-23 06:34N 34°32' E 135°18'1110.8
2014-Oct-23 05:31N 34°24' E 135°08'11 9.6
2014-Oct-23 04:20N 34°15' E 134°60'1010.6
2014-Oct-23 03:22N 34°05' E 135°01'  
2014-Oct-20 15:19N 33°59' E 135°00'912.2
2014-Oct-20 14:33N 34°08' E 134°59'1212.4
2014-Oct-20 13:34N 34°20' E 134°59'1312.5
2014-Oct-20 12:33N 34°29' E 135°11'1212.1
2014-Oct-20 11:33N 34°36' E 135°22'3 0.7
2014-Oct-20 07:06N 34°35' E 135°26'3 5.7
2014-Oct-20 06:33N 34°36' E 135°22'1212.0
2014-Oct-20 05:34N 34°28' E 135°12'1311.7
2014-Oct-20 04:29N 34°19' E 135°01'1010.7
2014-Oct-20 03:33N 34°09' E 135°00'10 0.2
2014-Oct-18 08:09N 33°58' E 135°01'711.8
2014-Oct-18 07:33N 34°05' E 134°60'1211.2
2014-Oct-18 06:30N 34°17' E 134°58'1111.1
2014-Oct-18 05:33N 34°26' E 135°05'1211.8
2014-Oct-18 04:33N 34°33' E 135°17'7 2.2
2014-Oct-18 01:15N 34°35' E 135°26'0 0.0
2014-Oct-18 00:33N 34°35' E 135°26'0 0.0
2014-Oct-17 23:33N 34°35' E 135°26'7 7.3
2014-Oct-17 22:33N 34°32' E 135°17'1212.1
2014-Oct-17 21:33N 34°24' E 135°07'1111.3
2014-Oct-17 20:33N 34°14' E 134°60'1212.2
2014-Oct-17 19:33N 34°02' E 135°02'3 0.1
2014-Oct-16 07:29N 33°59' E 135°00'1111.6
2014-Oct-16 06:34N 34°10' E 134°59'1110.3
2014-Oct-16 05:31N 34°20' E 134°60'1111.1
2014-Oct-16 04:33N 34°28' E 135°09'1111.3
2014-Oct-16 03:33N 34°35' E 135°20'5 0.9
2014-Oct-15 22:33N 34°35' E 135°26'2 2.4
2014-Oct-15 21:33N 34°36' E 135°23'0 0.0
2014-Oct-15 20:33N 34°36' E 135°23'0 0.0
2014-Oct-15 19:33N 34°36' E 135°23'0 0.0
2014-Oct-15 18:33N 34°36' E 135°23'0 0.0
2014-Oct-15 17:33N 34°36' E 135°23'0 0.0
2014-Oct-15 16:33N 34°36' E 135°23'0 0.0
2014-Oct-15 15:33N 34°36' E 135°23'4 3.6
2014-Oct-15 14:33N 34°34' E 135°19'1111.5
2014-Oct-15 13:33N 34°26' E 135°09'1211.2
2014-Oct-15 12:31N 34°17' E 134°59'1111.5
2014-Oct-15 11:33N 34°06' E 135°01'  
Track history (hours):
 
Tides and Currents Weather Stations Pressure Air Temp Water Temp Dewpoint Dewpoint Depression Visibility Wind Speed Wind Dir Waves Ship Positions

Oval Lp No.11

Last reported at 2014-Oct-24 14:04 UTC. Time now 2014-Oct-24 20:33 UTC.
Position N 34°01' E 134°59'.

Length 67 m; draft 3.6 m.

Type: Ship (hazmat cat A). MMSI: 431500366.

Date/timePositionNaut miles runAvg speedWind from/ knotsBaromVisibWave heightAir tempDewpointWater temp
2014-Oct-24 14:04N 34°01' E 134°59'712.1
2014-Oct-24 13:31N 34°08' E 134°59'1211.6
2014-Oct-24 12:31N 34°20' E 134°59'1111.5
2014-Oct-24 11:33N 34°28' E 135°08'1212.3
2014-Oct-24 10:33N 34°35' E 135°20'5 4.3
2014-Oct-24 09:29N 34°34' E 135°26'0 0.0
2014-Oct-24 08:29N 34°34' E 135°26'0 0.0
2014-Oct-24 07:29N 34°34' E 135°26'0 0.3
2014-Oct-24 06:33N 34°35' E 135°25'2 2.0
2014-Oct-24 05:22N 34°36' E 135°23'0 0.0
2014-Oct-24 03:28N 34°36' E 135°23'3 0.9
2014-Oct-24 00:19N 34°34' E 135°25'0 0.0
2014-Oct-23 23:23N 34°34' E 135°25'2 0.3
2014-Oct-23 16:33N 34°34' E 135°23'0 0.0
2014-Oct-23 10:33N 34°34' E 135°23'2 1.9
2014-Oct-23 09:29N 34°34' E 135°26'0 0.0
2014-Oct-23 08:23N 34°34' E 135°26'0 0.0
2014-Oct-23 07:33N 34°34' E 135°26'7 6.8
2014-Oct-23 06:34N 34°32' E 135°18'1110.8
2014-Oct-23 05:31N 34°24' E 135°08'11 9.6
2014-Oct-23 04:20N 34°15' E 134°60'1010.6
2014-Oct-23 03:22N 34°05' E 135°01'  
2014-Oct-20 15:19N 33°59' E 135°00'912.2
2014-Oct-20 14:33N 34°08' E 134°59'1212.4
2014-Oct-20 13:34N 34°20' E 134°59'1312.5
2014-Oct-20 12:33N 34°29' E 135°11'1212.1
2014-Oct-20 11:33N 34°36' E 135°22'3 0.7
2014-Oct-20 07:06N 34°35' E 135°26'3 5.7
2014-Oct-20 06:33N 34°36' E 135°22'1212.0
2014-Oct-20 05:34N 34°28' E 135°12'1311.7
2014-Oct-20 04:29N 34°19' E 135°01'1010.7
2014-Oct-20 03:33N 34°09' E 135°00'10 0.2
2014-Oct-18 08:09N 33°58' E 135°01'711.8
2014-Oct-18 07:33N 34°05' E 134°60'1211.2
2014-Oct-18 06:30N 34°17' E 134°58'1111.1
2014-Oct-18 05:33N 34°26' E 135°05'1211.8
2014-Oct-18 04:33N 34°33' E 135°17'7 2.2
2014-Oct-18 01:15N 34°35' E 135°26'0 0.0
2014-Oct-18 00:33N 34°35' E 135°26'0 0.0
2014-Oct-17 23:33N 34°35' E 135°26'7 7.3
2014-Oct-17 22:33N 34°32' E 135°17'1212.1
2014-Oct-17 21:33N 34°24' E 135°07'1111.3
2014-Oct-17 20:33N 34°14' E 134°60'1212.2
2014-Oct-17 19:33N 34°02' E 135°02'3 0.1
2014-Oct-16 07:29N 33°59' E 135°00'1111.6
2014-Oct-16 06:34N 34°10' E 134°59'1110.3
2014-Oct-16 05:31N 34°20' E 134°60'1111.1
2014-Oct-16 04:33N 34°28' E 135°09'1111.3
2014-Oct-16 03:33N 34°35' E 135°20'5 0.9
2014-Oct-15 22:33N 34°35' E 135°26'2 2.4
2014-Oct-15 21:33N 34°36' E 135°23'0 0.0
2014-Oct-15 20:33N 34°36' E 135°23'0 0.0
2014-Oct-15 19:33N 34°36' E 135°23'0 0.0
2014-Oct-15 18:33N 34°36' E 135°23'0 0.0
2014-Oct-15 17:33N 34°36' E 135°23'0 0.0
2014-Oct-15 16:33N 34°36' E 135°23'0 0.0
2014-Oct-15 15:33N 34°36' E 135°23'4 3.6
2014-Oct-15 14:33N 34°34' E 135°19'1111.5
2014-Oct-15 13:33N 34°26' E 135°09'1211.2
2014-Oct-15 12:31N 34°17' E 134°59'1111.5
2014-Oct-15 11:33N 34°06' E 135°01'  

Dump ship's entire track history